Oakland, CA (94659)

7:49 AM PDT on April 25, 2015 (GMT -0700)
Downtown Oakland | | Change Station
CLOSE
Current Station
Personal Weather Station
Location: Oakland, CA
Elevation: 16 ft
Nearby Weather Stations

Elev 16 ft 37.81 °N, 122.27 °W | Updated 4 minutes ago

Overcast
Overcast
54.2 °F
Feels Like 54.2 °F
N
3.0
Wind Variable Wind from WNW
Gusts 9.0 mph

Today
High -- | Low -- °F
--% Chance of Precip.
Yesterday
High -- | Low -- °F
Precip. -- in
6:20 AM 7:53 PM
Waxing Crescent, 46% visible
Pressure 29.92 in
Visibility 9.0 miles
Clouds Scattered Clouds 1200 ft
Mostly Cloudy 1800 ft
Mostly Cloudy 15000 ft
Dew Point 52 °F
Humidity 91%
Rainfall 0.25 in
Snow Depth Not available.
UV 0 out of 12
Pollen 8.30 out of 12
Air Quality Not available.
Flu Activity Sporadic
METAR KOAK 251353Z 27016KT 9SM SCT012 BKN018 BKN150 12/10 A2992 RMK AO2 SLP131 T01170100 $

More Conditions Fewer Conditions

Pressure 29.92 in
Visibility 9.0 miles
Clouds Scattered Clouds 1200 ft
Mostly Cloudy 1800 ft
Mostly Cloudy 15000 ft
Dew Point 52 °F
Humidity 91%
Rainfall 0.25 in
Snow Depth Not available.
UV 0 out of 12
Pollen 8.30 out of 12
Air Quality Not available.
Flu Activity Sporadic
METAR KOAK 251353Z 27016KT 9SM SCT012 BKN018 BKN150 12/10 A2992 RMK AO2 SLP131 T01170100 $

More Conditions Fewer Conditions

10-Day Weather Forecast

Almanac

Astronomy

Apr. 25, 2015 Rise Set
Actual Time
Civil Twilight
Nautical Twilight
Astronomical Twilight
Moon
Length of Visible Light
Length of Day
Tomorrow will be .
, % of the Moon is Illuminated

Today's Extremes

State Highs State Lows

Community

WunderPhotos

Upload Photos

1,816,691 photos uploaded!

WunderBlogs® & News

Nearby

Air Quality

  Air Quality AQ Index Pollutant
Not available.

Snow Depth

Station Depth Elevation

Earthquake Activity

City Distance Mag. Time & Date
Minimum magnitude displayed is 2.5.

Coastal Water Temperatures

Place Temperature

Stations

Nearby Weather Stations

Station Location Temp. Windchill Dew Point Humidity Wind Precip. Elev Updated Type